Convoy, Ohio
Current Conditions -  °F | °C
As of 2:54 AM on Monday 26 Jan 2015 (Local Time) from KFWA Reporting Station
Overcast Overcast  
Wind Chill:   Ceiling: 4600
Heat Index: 19°   Visibility: 10mi
Dew Point: 10°   Wind: 10mph
Humidity: 68%   Direction: 40°NE
Pressure: 29.92"   Gusts: NA
Location:  40.92°N, 84.7°W
Report Text: KFWA 260754Z 04009KT 10SM BKN046 OVC060 M07/M12 A2992 RMK AO2 SLP142 T10721122 $
Loading
Personal Weather Stations






























Interactive Weather Map New forecast layout! Learn more

10-Day Weather Forecast

Advertisements
Track Severe Weather on mobile